LIRA/CIA METAR and TAF weather

Enter ICAO airport designator
Station Type Date Time Source
LIRA METAR 2020/01/29 03:20 UTC NOAA

LIRA 290320Z 14004KT CAVOK 08/07 Q1013


Station Type Date Time Source
LIRA Decoded METAR 2020/01/29 03:20 UTC NOAA

Roma / Ciampino, Italy (LIRA) 41-47N 012-35E 105M
Jan 28, 2020 - 10:20 PM EST / 2020.01.29 0320 UTC
Wind: from the SE (140 degrees) at 5 MPH (4 KT):0
Visibility: greater than 7 mile(s):0
Temperature: 46 F (8 C)
Dew Point: 44 F (7 C)
Relative Humidity: 93%
Pressure (altimeter): 29.91 in. Hg (1013 hPa)
ob: LIRA 290320Z 14004KT CAVOK 08/07 Q1013
cycle: 3

Station Type Date Time Source
LIRA TAF 2020/01/28 18:21 UTC NOAA

TAF LIRA 281700Z 2818/2918 VRB05KT 9999 SCT030
BECMG 2909/2911 26010KT

Example: see airport list